sensor_id;sensor_type;location;lat;lon;timestamp;pressure;altitude;pressure_sealevel;temperature;humidity
52693;BME280;68218;51.012;-1.648;2023-05-10T00:00:57;100203.34;;;10.95;100.00
52693;BME280;68218;51.012;-1.648;2023-05-10T00:03:22;100210.34;;;10.85;100.00
52693;BME280;68218;51.012;-1.648;2023-05-10T00:05:47;100206.84;;;10.85;100.00
52693;BME280;68218;51.012;-1.648;2023-05-10T00:08:13;100203.03;;;10.81;100.00
52693;BME280;68218;51.012;-1.648;2023-05-10T00:10:38;100201.44;;;10.80;100.00
52693;BME280;68218;51.012;-1.648;2023-05-10T00:13:04;100197.34;;;10.72;100.00
52693;BME280;68218;51.012;-1.648;2023-05-10T00:15:29;100195.16;;;10.64;100.00
52693;BME280;68218;51.012;-1.648;2023-05-10T00:17:58;100196.25;;;10.63;100.00
52693;BME280;68218;51.012;-1.648;2023-05-10T00:20:23;100198.91;;;10.58;100.00
52693;BME280;68218;51.012;-1.648;2023-05-10T00:22:49;100203.47;;;10.57;100.00
52693;BME280;68218;51.012;-1.648;2023-05-10T00:25:14;100207.28;;;10.61;100.00
52693;BME280;68218;51.012;-1.648;2023-05-10T00:27:39;100207.25;;;10.56;100.00
52693;BME280;68218;51.012;-1.648;2023-05-10T00:30:05;100210.47;;;10.53;100.00
52693;BME280;68218;51.012;-1.648;2023-05-10T00:32:31;100213.94;;;10.48;100.00
52693;BME280;68218;51.012;-1.648;2023-05-10T00:34:57;100205.84;;;10.43;100.00
52693;BME280;68218;51.012;-1.648;2023-05-10T00:37:22;100205.03;;;10.43;100.00
52693;BME280;68218;51.012;-1.648;2023-05-10T00:39:48;100209.00;;;10.30;100.00
52693;BME280;68218;51.012;-1.648;2023-05-10T00:42:13;100201.41;;;10.22;100.00
52693;BME280;68218;51.012;-1.648;2023-05-10T00:44:39;100202.50;;;10.26;100.00
52693;BME280;68218;51.012;-1.648;2023-05-10T00:47:04;100201.66;;;10.20;100.00
52693;BME280;68218;51.012;-1.648;2023-05-10T00:49:30;100206.50;;;10.18;100.00
52693;BME280;68218;51.012;-1.648;2023-05-10T00:51:56;100210.25;;;10.17;100.00
52693;BME280;68218;51.012;-1.648;2023-05-10T00:54:22;100207.56;;;10.17;100.00
52693;BME280;68218;51.012;-1.648;2023-05-10T00:56:47;100217.53;;;10.17;100.00
52693;BME280;68218;51.012;-1.648;2023-05-10T00:59:18;100218.59;;;10.16;100.00
52693;BME280;68218;51.012;-1.648;2023-05-10T01:01:44;100215.09;;;10.15;100.00
52693;BME280;68218;51.012;-1.648;2023-05-10T01:04:11;100222.94;;;10.17;100.00
52693;BME280;68218;51.012;-1.648;2023-05-10T01:06:38;100219.44;;;10.16;100.00
52693;BME280;68218;51.012;-1.648;2023-05-10T01:09:04;100221.56;;;10.14;100.00
52693;BME280;68218;51.012;-1.648;2023-05-10T01:11:33;100231.50;;;10.08;100.00
52693;BME280;68218;51.012;-1.648;2023-05-10T01:13:58;100231.75;;;10.07;100.00
52693;BME280;68218;51.012;-1.648;2023-05-10T01:16:24;100226.03;;;9.98;100.00
52693;BME280;68218;51.012;-1.648;2023-05-10T01:18:52;100228.50;;;10.05;100.00
52693;BME280;68218;51.012;-1.648;2023-05-10T01:35:07;100228.94;;;9.91;100.00
52693;BME280;68218;51.012;-1.648;2023-05-10T01:37:52;100231.38;;;9.93;100.00
52693;BME280;68218;51.012;-1.648;2023-05-10T01:43:30;100237.22;;;9.80;100.00
52693;BME280;68218;51.012;-1.648;2023-05-10T01:46:16;100236.66;;;9.78;100.00
52693;BME280;68218;51.012;-1.648;2023-05-10T01:48:47;100234.47;;;9.74;100.00
52693;BME280;68218;51.012;-1.648;2023-05-10T01:51:19;100234.97;;;9.71;100.00
52693;BME280;68218;51.012;-1.648;2023-05-10T01:53:47;100240.91;;;9.68;100.00
52693;BME280;68218;51.012;-1.648;2023-05-10T01:56:15;100233.38;;;9.70;100.00
52693;BME280;68218;51.012;-1.648;2023-05-10T01:58:43;100237.91;;;9.65;100.00
52693;BME280;68218;51.012;-1.648;2023-05-10T02:01:12;100240.59;;;9.65;100.00
52693;BME280;68218;51.012;-1.648;2023-05-10T02:03:40;100238.97;;;9.64;100.00
52693;BME280;68218;51.012;-1.648;2023-05-10T02:06:07;100238.97;;;9.64;100.00
52693;BME280;68218;51.012;-1.648;2023-05-10T02:08:35;100242.66;;;9.57;100.00
52693;BME280;68218;51.012;-1.648;2023-05-10T02:11:02;100249.75;;;9.64;100.00
52693;BME280;68218;51.012;-1.648;2023-05-10T02:13:29;100251.63;;;9.63;100.00
52693;BME280;68218;51.012;-1.648;2023-05-10T02:15:57;100246.50;;;9.62;100.00
52693;BME280;68218;51.012;-1.648;2023-05-10T02:18:23;100251.34;;;9.60;100.00
52693;BME280;68218;51.012;-1.648;2023-05-10T02:20:50;100247.25;;;9.57;100.00
52693;BME280;68218;51.012;-1.648;2023-05-10T02:23:18;100243.81;;;9.62;100.00
52693;BME280;68218;51.012;-1.648;2023-05-10T02:25:45;100248.31;;;9.56;100.00
52693;BME280;68218;51.012;-1.648;2023-05-10T02:28:13;100252.13;;;9.60;100.00
52693;BME280;68218;51.012;-1.648;2023-05-10T02:30:39;100252.94;;;9.61;100.00
52693;BME280;68218;51.012;-1.648;2023-05-10T02:33:05;100249.19;;;9.62;100.00
52693;BME280;68218;51.012;-1.648;2023-05-10T02:35:32;100254.28;;;9.58;100.00
52693;BME280;68218;51.012;-1.648;2023-05-10T02:37:59;100259.41;;;9.60;100.00
52693;BME280;68218;51.012;-1.648;2023-05-10T02:40:25;100257.28;;;9.62;100.00
52693;BME280;68218;51.012;-1.648;2023-05-10T02:42:54;100259.13;;;9.61;100.00
52693;BME280;68218;51.012;-1.648;2023-05-10T02:45:24;100252.88;;;9.55;100.00
52693;BME280;68218;51.012;-1.648;2023-05-10T02:47:52;100262.34;;;9.58;100.00
52693;BME280;68218;51.012;-1.648;2023-05-10T02:50:18;100265.00;;;9.53;100.00
52693;BME280;68218;51.012;-1.648;2023-05-10T02:52:47;100265.81;;;9.53;100.00
52693;BME280;68218;51.012;-1.648;2023-05-10T02:55:16;100265.28;;;9.56;100.00
52693;BME280;68218;51.012;-1.648;2023-05-10T02:57:59;100262.06;;;9.54;100.00
52693;BME280;68218;51.012;-1.648;2023-05-10T03:00:25;100260.13;;;9.50;100.00
52693;BME280;68218;51.012;-1.648;2023-05-10T03:02:51;100266.50;;;9.44;100.00
52693;BME280;68218;51.012;-1.648;2023-05-10T03:05:17;100276.03;;;9.51;100.00
52693;BME280;68218;51.012;-1.648;2023-05-10T03:07:43;100278.41;;;9.48;100.00
52693;BME280;68218;51.012;-1.648;2023-05-10T03:10:09;100285.91;;;9.46;100.00
52693;BME280;68218;51.012;-1.648;2023-05-10T03:13:07;100279.09;;;9.38;100.00
52693;BME280;68218;51.012;-1.648;2023-05-10T03:18:22;100286.72;;;9.46;100.00
52693;BME280;68218;51.012;-1.648;2023-05-10T03:20:57;100287.22;;;9.43;100.00
52693;BME280;68218;51.012;-1.648;2023-05-10T03:23:30;100277.78;;;9.41;100.00
52693;BME280;68218;51.012;-1.648;2023-05-10T03:25:59;100276.16;;;9.40;100.00
52693;BME280;68218;51.012;-1.648;2023-05-10T03:28:25;100280.09;;;9.32;100.00
52693;BME280;68218;51.012;-1.648;2023-05-10T03:30:53;100261.09;;;9.16;100.00
52693;BME280;68218;51.012;-1.648;2023-05-10T03:33:19;100278.38;;;9.21;100.00
52693;BME280;68218;51.012;-1.648;2023-05-10T03:35:45;100277.84;;;9.18;100.00
52693;BME280;68218;51.012;-1.648;2023-05-10T03:38:11;100277.56;;;9.20;100.00
52693;BME280;68218;51.012;-1.648;2023-05-10T03:40:37;100282.13;;;9.19;100.00
52693;BME280;68218;51.012;-1.648;2023-05-10T03:43:02;100279.94;;;9.16;100.00
52693;BME280;68218;51.012;-1.648;2023-05-10T03:45:28;100291.59;;;9.22;100.00
52693;BME280;68218;51.012;-1.648;2023-05-10T03:47:53;100286.47;;;9.21;100.00
52693;BME280;68218;51.012;-1.648;2023-05-10T03:50:20;100292.34;;;9.17;100.00
52693;BME280;68218;51.012;-1.648;2023-05-10T03:52:45;100298.59;;;9.23;100.00
52693;BME280;68218;51.012;-1.648;2023-05-10T03:55:11;100292.41;;;9.23;100.00
52693;BME280;68218;51.012;-1.648;2023-05-10T03:57:37;100303.41;;;9.21;100.00
52693;BME280;68218;51.012;-1.648;2023-05-10T04:00:03;100292.09;;;9.19;100.00
52693;BME280;68218;51.012;-1.648;2023-05-10T04:02:28;100302.06;;;9.18;100.00
52693;BME280;68218;51.012;-1.648;2023-05-10T04:04:55;100295.53;;;9.14;100.00
52693;BME280;68218;51.012;-1.648;2023-05-10T04:07:20;100310.63;;;9.15;100.00
52693;BME280;68218;51.012;-1.648;2023-05-10T04:09:46;100308.44;;;9.12;100.00
52693;BME280;68218;51.012;-1.648;2023-05-10T04:12:12;100306.78;;;9.11;100.00
52693;BME280;68218;51.012;-1.648;2023-05-10T04:14:37;100304.56;;;9.03;100.00
52693;BME280;68218;51.012;-1.648;2023-05-10T04:17:03;100307.31;;;9.08;100.00
52693;BME280;68218;51.012;-1.648;2023-05-10T04:19:29;100301.94;;;9.08;100.00
52693;BME280;68218;51.012;-1.648;2023-05-10T04:21:55;100300.03;;;9.09;100.00
52693;BME280;68218;51.012;-1.648;2023-05-10T04:24:20;100306.78;;;9.11;100.00
52693;BME280;68218;51.012;-1.648;2023-05-10T04:26:46;100316.94;;;9.04;100.00
52693;BME280;68218;51.012;-1.648;2023-05-10T04:29:11;100316.63;;;9.00;100.00
52693;BME280;68218;51.012;-1.648;2023-05-10T04:31:37;100327.69;;;9.04;100.00
52693;BME280;68218;51.012;-1.648;2023-05-10T04:34:02;100314.25;;;9.04;100.00
52693;BME280;68218;51.012;-1.648;2023-05-10T04:36:28;100315.94;;;9.10;100.00
52693;BME280;68218;51.012;-1.648;2023-05-10T04:38:54;100316.81;;;9.16;100.00
52693;BME280;68218;51.012;-1.648;2023-05-10T04:41:19;100314.47;;;9.25;100.00
52693;BME280;68218;51.012;-1.648;2023-05-10T04:43:46;100315.03;;;9.27;100.00
52693;BME280;68218;51.012;-1.648;2023-05-10T04:46:11;100323.22;;;9.37;100.00
52693;BME280;68218;51.012;-1.648;2023-05-10T04:48:36;100317.91;;;9.42;100.00
52693;BME280;68218;51.012;-1.648;2023-05-10T04:51:02;100322.34;;;9.53;100.00
52693;BME280;68218;51.012;-1.648;2023-05-10T04:53:29;100324.59;;;9.62;100.00
52693;BME280;68218;51.012;-1.648;2023-05-10T04:55:54;100322.00;;;9.72;100.00
52693;BME280;68218;51.012;-1.648;2023-05-10T04:58:20;100323.91;;;9.77;100.00
52693;BME280;68218;51.012;-1.648;2023-05-10T05:00:45;100325.78;;;9.76;100.00
52693;BME280;68218;51.012;-1.648;2023-05-10T05:03:10;100325.78;;;9.76;100.00
52693;BME280;68218;51.012;-1.648;2023-05-10T05:05:36;100332.75;;;9.72;100.00
52693;BME280;68218;51.012;-1.648;2023-05-10T05:08:01;100330.63;;;9.74;100.00
52693;BME280;68218;51.012;-1.648;2023-05-10T05:10:27;100339.75;;;9.73;100.00
52693;BME280;68218;51.012;-1.648;2023-05-10T05:12:52;100336.50;;;9.71;100.00
52693;BME280;68218;51.012;-1.648;2023-05-10T05:15:18;100340.59;;;9.73;100.00
52693;BME280;68218;51.012;-1.648;2023-05-10T05:17:43;100332.22;;;9.70;100.00
52693;BME280;68218;51.012;-1.648;2023-05-10T05:20:09;100336.50;;;9.71;100.00
52693;BME280;68218;51.012;-1.648;2023-05-10T05:22:38;100345.19;;;9.78;100.00
52693;BME280;68218;51.012;-1.648;2023-05-10T05:25:04;100352.56;;;9.88;100.00
52693;BME280;68218;51.012;-1.648;2023-05-10T05:27:29;100349.13;;;9.92;100.00
52693;BME280;68218;51.012;-1.648;2023-05-10T05:29:56;100347.88;;;10.05;100.00
52693;BME280;68218;51.012;-1.648;2023-05-10T05:32:23;100356.25;;;10.09;100.00
52693;BME280;68218;51.012;-1.648;2023-05-10T05:34:48;100348.22;;;10.14;100.00
52693;BME280;68218;51.012;-1.648;2023-05-10T05:37:15;100365.56;;;10.23;100.00
52693;BME280;68218;51.012;-1.648;2023-05-10T05:39:40;100358.94;;;10.36;100.00
52693;BME280;68218;51.012;-1.648;2023-05-10T05:42:06;100357.84;;;10.32;100.00
52693;BME280;68218;51.012;-1.648;2023-05-10T05:44:31;100362.34;;;10.26;100.00
52693;BME280;68218;51.012;-1.648;2023-05-10T05:46:56;100366.94;;;10.31;100.00
52693;BME280;68218;51.012;-1.648;2023-05-10T05:49:22;100369.16;;;10.34;100.00
52693;BME280;68218;51.012;-1.648;2023-05-10T05:51:47;100380.75;;;10.35;100.00
52693;BME280;68218;51.012;-1.648;2023-05-10T05:54:14;100376.44;;;10.34;100.00
52693;BME280;68218;51.012;-1.648;2023-05-10T05:56:40;100384.06;;;10.42;100.00
52693;BME280;68218;51.012;-1.648;2023-05-10T05:59:05;100382.78;;;10.49;100.00
52693;BME280;68218;51.012;-1.648;2023-05-10T06:01:31;100382.56;;;10.56;100.00
52693;BME280;68218;51.012;-1.648;2023-05-10T06:03:56;100390.13;;;10.59;100.00
52693;BME280;68218;51.012;-1.648;2023-05-10T06:06:22;100389.63;;;10.67;100.00
52693;BME280;68218;51.012;-1.648;2023-05-10T06:08:47;100390.47;;;10.68;100.00
52693;BME280;68218;51.012;-1.648;2023-05-10T06:11:12;100386.16;;;10.72;100.00
52693;BME280;68218;51.012;-1.648;2023-05-10T06:13:38;100391.28;;;10.74;100.00
52693;BME280;68218;51.012;-1.648;2023-05-10T06:16:03;100394.78;;;10.74;100.00
52693;BME280;68218;51.012;-1.648;2023-05-10T06:18:29;100395.63;;;10.75;100.00
52693;BME280;68218;51.012;-1.648;2023-05-10T06:20:55;100389.75;;;10.88;100.00
52693;BME280;68218;51.012;-1.648;2023-05-10T06:23:20;100391.44;;;10.94;100.00
52693;BME280;68218;51.012;-1.648;2023-05-10T06:25:46;100399.03;;;11.02;100.00
52693;BME280;68218;51.012;-1.648;2023-05-10T06:28:11;100395.81;;;11.05;100.00
52693;BME280;68218;51.012;-1.648;2023-05-10T06:30:36;100399.13;;;11.18;100.00
52693;BME280;68218;51.012;-1.648;2023-05-10T06:33:02;100398.03;;;11.24;100.00
52693;BME280;68218;51.012;-1.648;2023-05-10T06:35:28;100406.44;;;11.22;100.00
52693;BME280;68218;51.012;-1.648;2023-05-10T06:37:54;100405.91;;;11.31;99.84
52693;BME280;68218;51.012;-1.648;2023-05-10T06:40:19;100410.56;;;11.40;100.00
52693;BME280;68218;51.012;-1.648;2023-05-10T06:42:46;100407.88;;;11.46;99.01
52693;BME280;68218;51.012;-1.648;2023-05-10T06:45:12;100403.84;;;11.48;99.29
52693;BME280;68218;51.012;-1.648;2023-05-10T06:47:37;100410.09;;;11.64;98.92
52693;BME280;68218;51.012;-1.648;2023-05-10T06:50:03;100410.66;;;11.71;98.07
52693;BME280;68218;51.012;-1.648;2023-05-10T06:52:28;100402.31;;;11.83;98.51
52693;BME280;68218;51.012;-1.648;2023-05-10T06:54:54;100408.28;;;11.90;97.26
52693;BME280;68218;51.012;-1.648;2023-05-10T06:57:19;100418.34;;;12.00;93.89
52693;BME280;68218;51.012;-1.648;2023-05-10T06:59:45;100411.34;;;12.35;98.01
52693;BME280;68218;51.012;-1.648;2023-05-10T07:02:11;100413.50;;;12.43;93.22
52693;BME280;68218;51.012;-1.648;2023-05-10T07:04:36;100403.22;;;12.61;95.58
52693;BME280;68218;51.012;-1.648;2023-05-10T07:07:02;100408.09;;;12.38;95.47
52693;BME280;68218;51.012;-1.648;2023-05-10T07:09:27;100410.25;;;12.67;95.94
52693;BME280;68218;51.012;-1.648;2023-05-10T07:11:53;100413.78;;;12.42;94.19
52693;BME280;68218;51.012;-1.648;2023-05-10T07:14:18;100410.25;;;12.57;93.37
52693;BME280;68218;51.012;-1.648;2023-05-10T07:16:44;100408.84;;;12.95;91.95
52693;BME280;68218;51.012;-1.648;2023-05-10T07:19:09;100411.75;;;13.35;92.97
52693;BME280;68218;51.012;-1.648;2023-05-10T07:21:36;100403.31;;;13.46;93.34
52693;BME280;68218;51.012;-1.648;2023-05-10T07:24:01;100421.28;;;13.82;92.96
52693;BME280;68218;51.012;-1.648;2023-05-10T07:26:27;100422.56;;;13.29;89.96
52693;BME280;68218;51.012;-1.648;2023-05-10T07:28:52;100420.97;;;13.23;88.67
52693;BME280;68218;51.012;-1.648;2023-05-10T07:31:17;100421.50;;;13.30;90.27
52693;BME280;68218;51.012;-1.648;2023-05-10T07:33:43;100426.91;;;13.41;92.08
52693;BME280;68218;51.012;-1.648;2023-05-10T07:36:08;100426.84;;;13.56;89.94
52693;BME280;68218;51.012;-1.648;2023-05-10T07:38:34;100429.22;;;13.68;91.58
52693;BME280;68218;51.012;-1.648;2023-05-10T07:40:59;100433.53;;;13.74;90.59
52693;BME280;68218;51.012;-1.648;2023-05-10T07:43:25;100430.91;;;13.48;87.04
52693;BME280;68218;51.012;-1.648;2023-05-10T07:45:50;100429.47;;;13.72;89.19
52693;BME280;68218;51.012;-1.648;2023-05-10T07:48:15;100430.22;;;13.82;89.74
52693;BME280;68218;51.012;-1.648;2023-05-10T07:50:41;100430.59;;;14.10;85.59
52693;BME280;68218;51.012;-1.648;2023-05-10T07:53:06;100430.50;;;13.81;86.21
52693;BME280;68218;51.012;-1.648;2023-05-10T07:55:32;100434.34;;;13.75;86.91
52693;BME280;68218;51.012;-1.648;2023-05-10T07:57:58;100423.31;;;13.61;86.08
52693;BME280;68218;51.012;-1.648;2023-05-10T08:00:26;100428.44;;;13.62;87.61
52693;BME280;68218;51.012;-1.648;2023-05-10T08:02:51;100432.22;;;13.66;90.74
52693;BME280;68218;51.012;-1.648;2023-05-10T08:05:17;100426.22;;;13.75;87.86
52693;BME280;68218;51.012;-1.648;2023-05-10T08:07:42;100422.09;;;14.27;91.36
52693;BME280;68218;51.012;-1.648;2023-05-10T08:10:08;100432.34;;;14.35;84.29
52693;BME280;68218;51.012;-1.648;2023-05-10T08:12:34;100423.63;;;15.02;86.90
52693;BME280;68218;51.012;-1.648;2023-05-10T08:15:00;100424.19;;;14.99;82.98
52693;BME280;68218;51.012;-1.648;2023-05-10T08:17:25;100425.13;;;14.60;83.83
52693;BME280;68218;51.012;-1.648;2023-05-10T08:19:51;100429.34;;;15.01;80.05
52693;BME280;68218;51.012;-1.648;2023-05-10T08:22:16;100430.00;;;15.16;80.94
52693;BME280;68218;51.012;-1.648;2023-05-10T08:24:42;100426.47;;;15.16;80.30
52693;BME280;68218;51.012;-1.648;2023-05-10T08:27:08;100431.84;;;15.45;75.32
52693;BME280;68218;51.012;-1.648;2023-05-10T08:29:34;100434.22;;;15.52;76.59
52693;BME280;68218;51.012;-1.648;2023-05-10T08:31:59;100434.16;;;15.33;77.96
52693;BME280;68218;51.012;-1.648;2023-05-10T08:34:26;100435.44;;;15.41;79.82
52693;BME280;68218;51.012;-1.648;2023-05-10T08:36:52;100429.19;;;15.40;79.33
52693;BME280;68218;51.012;-1.648;2023-05-10T08:39:17;100424.44;;;15.51;79.26
52693;BME280;68218;51.012;-1.648;2023-05-10T08:41:44;100427.13;;;15.32;82.10
52693;BME280;68218;51.012;-1.648;2023-05-10T08:44:10;100428.94;;;15.61;82.07
52693;BME280;68218;51.012;-1.648;2023-05-10T08:46:36;100433.34;;;16.19;82.76
52693;BME280;68218;51.012;-1.648;2023-05-10T08:49:06;100427.03;;;16.04;77.34
52693;BME280;68218;51.012;-1.648;2023-05-10T08:51:35;100428.25;;;16.12;74.77
52693;BME280;68218;51.012;-1.648;2023-05-10T08:54:02;100432.09;;;16.30;78.22
52693;BME280;68218;51.012;-1.648;2023-05-10T08:56:28;100425.97;;;16.00;78.59
52693;BME280;68218;51.012;-1.648;2023-05-10T08:58:54;100432.34;;;16.47;80.97
52693;BME280;68218;51.012;-1.648;2023-05-10T09:01:21;100430.69;;;16.98;75.82
52693;BME280;68218;51.012;-1.648;2023-05-10T09:03:46;100421.63;;;17.45;77.52
52693;BME280;68218;51.012;-1.648;2023-05-10T09:06:13;100416.34;;;17.62;71.25
52693;BME280;68218;51.012;-1.648;2023-05-10T09:08:41;100417.56;;;17.56;73.50
52693;BME280;68218;51.012;-1.648;2023-05-10T09:11:07;100429.06;;;17.53;74.95
52693;BME280;68218;51.012;-1.648;2023-05-10T09:13:35;100432.31;;;16.66;74.94
52693;BME280;68218;51.012;-1.648;2023-05-10T09:16:01;100432.06;;;16.49;69.64
52693;BME280;68218;51.012;-1.648;2023-05-10T09:18:26;100426.34;;;17.25;75.47
52693;BME280;68218;51.012;-1.648;2023-05-10T09:20:52;100424.34;;;17.31;72.86
52693;BME280;68218;51.012;-1.648;2023-05-10T09:23:17;100425.25;;;17.54;72.44
52693;BME280;68218;51.012;-1.648;2023-05-10T09:25:43;100428.56;;;16.95;75.63
52693;BME280;68218;51.012;-1.648;2023-05-10T09:28:09;100435.19;;;16.89;77.13
52693;BME280;68218;51.012;-1.648;2023-05-10T09:30:35;100436.16;;;18.04;75.02
52693;BME280;68218;51.012;-1.648;2023-05-10T09:33:01;100431.38;;;17.73;71.65
52693;BME280;68218;51.012;-1.648;2023-05-10T09:35:29;100431.16;;;17.70;70.55
52693;BME280;68218;51.012;-1.648;2023-05-10T09:38:00;100433.41;;;17.68;73.09
52693;BME280;68218;51.012;-1.648;2023-05-10T09:40:27;100431.59;;;16.94;78.42
52693;BME280;68218;51.012;-1.648;2023-05-10T09:42:53;100432.28;;;16.85;77.80
52693;BME280;68218;51.012;-1.648;2023-05-10T09:45:21;100428.22;;;17.80;74.84
52693;BME280;68218;51.012;-1.648;2023-05-10T09:47:46;100433.00;;;18.47;70.36
52693;BME280;68218;51.012;-1.648;2023-05-10T09:50:12;100422.75;;;18.08;75.35
52693;BME280;68218;51.012;-1.648;2023-05-10T09:52:55;100436.63;;;16.87;71.23
52693;BME280;68218;51.012;-1.648;2023-05-10T09:55:24;100430.31;;;17.19;76.04
52693;BME280;68218;51.012;-1.648;2023-05-10T09:57:59;100424.72;;;17.66;71.31
52693;BME280;68218;51.012;-1.648;2023-05-10T10:00:27;100433.19;;;17.92;67.41
52693;BME280;68218;51.012;-1.648;2023-05-10T10:02:58;100433.72;;;17.52;70.29
52693;BME280;68218;51.012;-1.648;2023-05-10T10:07:56;100429.06;;;18.17;69.27
52693;BME280;68218;51.012;-1.648;2023-05-10T10:10:22;100431.72;;;18.76;68.53
52693;BME280;68218;51.012;-1.648;2023-05-10T10:12:48;100431.19;;;17.56;73.10
52693;BME280;68218;51.012;-1.648;2023-05-10T10:15:14;100427.56;;;17.05;75.78
52693;BME280;68218;51.012;-1.648;2023-05-10T10:17:39;100427.88;;;17.45;74.90
52693;BME280;68218;51.012;-1.648;2023-05-10T10:20:06;100420.44;;;17.73;71.90
52693;BME280;68218;51.012;-1.648;2023-05-10T10:22:32;100427.44;;;18.16;66.62
52693;BME280;68218;51.012;-1.648;2023-05-10T10:24:58;100427.97;;;18.41;67.93
52693;BME280;68218;51.012;-1.648;2023-05-10T10:30:45;100420.66;;;19.61;64.18
52693;BME280;68218;51.012;-1.648;2023-05-10T10:35:53;100418.16;;;19.25;65.93
52693;BME280;68218;51.012;-1.648;2023-05-10T10:38:20;100425.50;;;19.16;62.05
52693;BME280;68218;51.012;-1.648;2023-05-10T10:40:45;100421.75;;;18.71;63.81
52693;BME280;68218;51.012;-1.648;2023-05-10T10:43:27;100429.13;;;18.03;66.43
52693;BME280;68218;51.012;-1.648;2023-05-10T10:46:15;100419.56;;;18.14;63.76
52693;BME280;68218;51.012;-1.648;2023-05-10T10:48:47;100424.34;;;18.09;68.49
52693;BME280;68218;51.012;-1.648;2023-05-10T10:51:13;100416.34;;;18.58;69.57
52693;BME280;68218;51.012;-1.648;2023-05-10T10:53:40;100411.22;;;19.94;63.94
52693;BME280;68218;51.012;-1.648;2023-05-10T10:56:12;100399.97;;;20.04;61.85
52693;BME280;68218;51.012;-1.648;2023-05-10T10:58:40;100413.88;;;19.50;60.17
52693;BME280;68218;51.012;-1.648;2023-05-10T11:01:16;100406.22;;;20.39;62.60
52693;BME280;68218;51.012;-1.648;2023-05-10T11:04:17;100410.91;;;19.87;63.78
52693;BME280;68218;51.012;-1.648;2023-05-10T11:06:43;100412.19;;;19.98;58.95
52693;BME280;68218;51.012;-1.648;2023-05-10T11:09:11;100412.50;;;19.21;58.94
52693;BME280;68218;51.012;-1.648;2023-05-10T11:11:49;100420.09;;;18.17;59.73
52693;BME280;68218;51.012;-1.648;2023-05-10T11:14:20;100424.75;;;18.39;61.99
52693;BME280;68218;51.012;-1.648;2023-05-10T11:16:47;100422.63;;;18.36;68.45
52693;BME280;68218;51.012;-1.648;2023-05-10T11:19:15;100413.50;;;18.18;68.64
52693;BME280;68218;51.012;-1.648;2023-05-10T11:21:52;100421.75;;;18.26;60.36
52693;BME280;68218;51.012;-1.648;2023-05-10T11:24:36;100414.69;;;18.48;59.76
52693;BME280;68218;51.012;-1.648;2023-05-10T11:27:02;100413.81;;;20.16;64.54
52693;BME280;68218;51.012;-1.648;2023-05-10T11:29:27;100403.66;;;20.34;63.21
52693;BME280;68218;51.012;-1.648;2023-05-10T11:31:57;100405.72;;;20.55;58.00
52693;BME280;68218;51.012;-1.648;2023-05-10T11:36:53;100391.16;;;21.19;54.62
52693;BME280;68218;51.012;-1.648;2023-05-10T11:39:20;100401.53;;;20.40;57.43
52693;BME280;68218;51.012;-1.648;2023-05-10T11:41:48;100391.66;;;21.12;54.42
52693;BME280;68218;51.012;-1.648;2023-05-10T11:44:14;100394.25;;;21.47;58.27
52693;BME280;68218;51.012;-1.648;2023-05-10T11:46:39;100394.28;;;21.39;59.68
52693;BME280;68218;51.012;-1.648;2023-05-10T11:49:06;100387.06;;;20.95;53.19
52693;BME280;68218;51.012;-1.648;2023-05-10T11:51:35;100393.75;;;21.75;55.28
52693;BME280;68218;51.012;-1.648;2023-05-10T11:54:06;100391.06;;;22.30;53.01
52693;BME280;68218;51.012;-1.648;2023-05-10T11:56:33;100385.22;;;21.47;50.64
52693;BME280;68218;51.012;-1.648;2023-05-10T11:58:58;100393.94;;;20.72;51.29
52693;BME280;68218;51.012;-1.648;2023-05-10T12:01:26;100389.66;;;20.92;58.23
52693;BME280;68218;51.012;-1.648;2023-05-10T12:03:53;100385.81;;;20.84;55.40
52693;BME280;68218;51.012;-1.648;2023-05-10T12:06:19;100376.16;;;21.17;51.32
52693;BME280;68218;51.012;-1.648;2023-05-10T12:08:47;100391.59;;;21.60;50.99
52693;BME280;68218;51.012;-1.648;2023-05-10T12:11:14;100386.38;;;21.37;47.22
52693;BME280;68218;51.012;-1.648;2023-05-10T12:13:42;100391.81;;;21.16;54.26
52693;BME280;68218;51.012;-1.648;2023-05-10T12:16:21;100394.09;;;20.49;53.55
52693;BME280;68218;51.012;-1.648;2023-05-10T12:18:56;100388.59;;;20.75;52.90
52693;BME280;68218;51.012;-1.648;2023-05-10T12:21:22;100382.31;;;20.66;59.94
52693;BME280;68218;51.012;-1.648;2023-05-10T12:23:52;100382.88;;;20.98;56.66
52693;BME280;68218;51.012;-1.648;2023-05-10T12:26:21;100391.41;;;20.23;52.86
52693;BME280;68218;51.012;-1.648;2023-05-10T12:28:47;100388.41;;;20.81;51.59
52693;BME280;68218;51.012;-1.648;2023-05-10T12:31:12;100391.47;;;21.18;54.19
52693;BME280;68218;51.012;-1.648;2023-05-10T12:33:43;100389.41;;;20.76;51.25
52693;BME280;68218;51.012;-1.648;2023-05-10T12:36:10;100393.91;;;20.54;58.31
52693;BME280;68218;51.012;-1.648;2023-05-10T12:38:40;100406.78;;;19.49;54.43
52693;BME280;68218;51.012;-1.648;2023-05-10T12:41:15;100401.91;;;19.86;55.22
52693;BME280;68218;51.012;-1.648;2023-05-10T12:43:42;100404.63;;;20.30;53.15
52693;BME280;68218;51.012;-1.648;2023-05-10T12:46:08;100394.00;;;20.11;54.46
52693;BME280;68218;51.012;-1.648;2023-05-10T12:48:35;100399.16;;;20.04;60.59
52693;BME280;68218;51.012;-1.648;2023-05-10T12:51:01;100404.66;;;19.37;58.99
52693;BME280;68218;51.012;-1.648;2023-05-10T12:53:27;100409.34;;;18.97;56.95
52693;BME280;68218;51.012;-1.648;2023-05-10T12:55:53;100414.00;;;18.42;63.25
52693;BME280;68218;51.012;-1.648;2023-05-10T12:58:18;100412.88;;;18.43;65.15
52693;BME280;68218;51.012;-1.648;2023-05-10T13:00:45;100409.84;;;18.22;66.90
52693;BME280;68218;51.012;-1.648;2023-05-10T13:03:10;100413.81;;;18.39;67.72
52693;BME280;68218;51.012;-1.648;2023-05-10T13:05:36;100407.09;;;17.86;61.35
52693;BME280;68218;51.012;-1.648;2023-05-10T13:08:02;100407.72;;;18.42;62.12